sensor_id;sensor_type;location;lat;lon;timestamp;P1;durP1;ratioP1;P2;durP2;ratioP2
66402;SDS011;53212;52.112;5.144;2023-05-10T00:01:30;27.40;;;23.70;;
66402;SDS011;53212;52.112;5.144;2023-05-10T00:03:55;26.10;;;23.30;;
66402;SDS011;53212;52.112;5.144;2023-05-10T00:06:21;27.90;;;24.10;;
66402;SDS011;53212;52.112;5.144;2023-05-10T00:08:46;27.70;;;23.80;;
66402;SDS011;53212;52.112;5.144;2023-05-10T00:11:12;28.00;;;25.00;;
66402;SDS011;53212;52.112;5.144;2023-05-10T00:13:37;27.80;;;24.20;;
66402;SDS011;53212;52.112;5.144;2023-05-10T00:16:03;26.20;;;23.30;;
66402;SDS011;53212;52.112;5.144;2023-05-10T00:18:28;27.90;;;24.40;;
66402;SDS011;53212;52.112;5.144;2023-05-10T00:20:53;29.70;;;24.90;;
66402;SDS011;53212;52.112;5.144;2023-05-10T00:23:19;27.70;;;24.70;;
66402;SDS011;53212;52.112;5.144;2023-05-10T00:25:45;27.00;;;24.10;;
66402;SDS011;53212;52.112;5.144;2023-05-10T00:28:10;29.40;;;24.80;;
66402;SDS011;53212;52.112;5.144;2023-05-10T00:30:35;28.40;;;24.80;;
66402;SDS011;53212;52.112;5.144;2023-05-10T00:33:01;29.40;;;25.20;;
66402;SDS011;53212;52.112;5.144;2023-05-10T00:35:26;27.80;;;24.30;;
66402;SDS011;53212;52.112;5.144;2023-05-10T00:37:52;27.70;;;24.70;;
66402;SDS011;53212;52.112;5.144;2023-05-10T00:40:17;29.60;;;24.90;;
66402;SDS011;53212;52.112;5.144;2023-05-10T00:42:43;29.10;;;24.20;;
66402;SDS011;53212;52.112;5.144;2023-05-10T00:45:08;26.80;;;24.00;;
66402;SDS011;53212;52.112;5.144;2023-05-10T00:47:34;27.90;;;24.10;;
66402;SDS011;53212;52.112;5.144;2023-05-10T00:50:00;28.70;;;24.30;;
66402;SDS011;53212;52.112;5.144;2023-05-10T00:52:29;31.40;;;26.60;;
66402;SDS011;53212;52.112;5.144;2023-05-10T00:54:55;30.10;;;26.60;;
66402;SDS011;53212;52.112;5.144;2023-05-10T00:57:21;30.90;;;26.70;;
66402;SDS011;53212;52.112;5.144;2023-05-10T00:59:48;29.90;;;25.50;;
66402;SDS011;53212;52.112;5.144;2023-05-10T01:02:14;32.70;;;26.70;;
66402;SDS011;53212;52.112;5.144;2023-05-10T01:04:39;33.80;;;27.30;;
66402;SDS011;53212;52.112;5.144;2023-05-10T01:07:05;34.40;;;27.60;;
66402;SDS011;53212;52.112;5.144;2023-05-10T01:09:31;37.00;;;28.90;;
66402;SDS011;53212;52.112;5.144;2023-05-10T01:11:57;36.70;;;29.20;;
66402;SDS011;53212;52.112;5.144;2023-05-10T01:14:23;36.70;;;28.90;;
66402;SDS011;53212;52.112;5.144;2023-05-10T01:16:50;33.10;;;27.00;;
66402;SDS011;53212;52.112;5.144;2023-05-10T01:19:22;37.50;;;29.80;;
66402;SDS011;53212;52.112;5.144;2023-05-10T01:21:57;33.80;;;27.20;;
66402;SDS011;53212;52.112;5.144;2023-05-10T01:25:23;36.40;;;28.10;;
66402;SDS011;53212;52.112;5.144;2023-05-10T01:33:46;32.10;;;25.60;;
66402;SDS011;53212;52.112;5.144;2023-05-10T01:36:34;32.90;;;25.30;;
66402;SDS011;53212;52.112;5.144;2023-05-10T01:39:23;37.10;;;29.50;;
66402;SDS011;53212;52.112;5.144;2023-05-10T01:45:11;39.70;;;27.40;;
66402;SDS011;53212;52.112;5.144;2023-05-10T01:47:50;37.10;;;27.80;;
66402;SDS011;53212;52.112;5.144;2023-05-10T01:50:24;45.10;;;30.00;;
66402;SDS011;53212;52.112;5.144;2023-05-10T01:52:55;41.70;;;29.20;;
66402;SDS011;53212;52.112;5.144;2023-05-10T01:55:25;41.60;;;29.20;;
66402;SDS011;53212;52.112;5.144;2023-05-10T01:58:00;41.80;;;30.20;;
66402;SDS011;53212;52.112;5.144;2023-05-10T02:00:33;43.00;;;28.10;;
66402;SDS011;53212;52.112;5.144;2023-05-10T02:03:06;48.00;;;30.60;;
66402;SDS011;53212;52.112;5.144;2023-05-10T02:05:33;48.00;;;31.50;;
66402;SDS011;53212;52.112;5.144;2023-05-10T02:08:00;45.80;;;30.60;;
66402;SDS011;53212;52.112;5.144;2023-05-10T02:10:28;46.90;;;30.10;;
66402;SDS011;53212;52.112;5.144;2023-05-10T02:12:55;49.60;;;33.00;;
66402;SDS011;53212;52.112;5.144;2023-05-10T02:15:24;53.20;;;32.90;;
66402;SDS011;53212;52.112;5.144;2023-05-10T02:17:52;53.80;;;34.20;;
66402;SDS011;53212;52.112;5.144;2023-05-10T02:20:20;55.20;;;33.70;;
66402;SDS011;53212;52.112;5.144;2023-05-10T02:22:50;49.80;;;31.90;;
66402;SDS011;53212;52.112;5.144;2023-05-10T02:25:18;52.80;;;32.00;;
66402;SDS011;53212;52.112;5.144;2023-05-10T02:27:46;53.90;;;33.90;;
66402;SDS011;53212;52.112;5.144;2023-05-10T02:30:13;50.70;;;32.60;;
66402;SDS011;53212;52.112;5.144;2023-05-10T02:32:39;49.80;;;32.90;;
66402;SDS011;53212;52.112;5.144;2023-05-10T02:35:06;48.20;;;32.10;;
66402;SDS011;53212;52.112;5.144;2023-05-10T02:37:33;52.60;;;33.30;;
66402;SDS011;53212;52.112;5.144;2023-05-10T02:40:00;55.90;;;35.20;;
66402;SDS011;53212;52.112;5.144;2023-05-10T02:42:28;54.10;;;35.20;;
66402;SDS011;53212;52.112;5.144;2023-05-10T02:45:00;51.70;;;34.30;;
66402;SDS011;53212;52.112;5.144;2023-05-10T02:47:28;47.20;;;33.70;;
66402;SDS011;53212;52.112;5.144;2023-05-10T02:49:54;47.10;;;31.50;;
66402;SDS011;53212;52.112;5.144;2023-05-10T02:52:23;49.10;;;33.80;;
66402;SDS011;53212;52.112;5.144;2023-05-10T02:54:54;50.40;;;34.30;;
66402;SDS011;53212;52.112;5.144;2023-05-10T02:57:26;47.80;;;34.30;;
66402;SDS011;53212;52.112;5.144;2023-05-10T02:59:54;53.30;;;35.30;;
66402;SDS011;53212;52.112;5.144;2023-05-10T03:02:20;50.60;;;35.40;;
66402;SDS011;53212;52.112;5.144;2023-05-10T03:04:46;50.10;;;33.80;;
66402;SDS011;53212;52.112;5.144;2023-05-10T03:07:11;50.90;;;35.80;;
66402;SDS011;53212;52.112;5.144;2023-05-10T03:09:37;57.20;;;35.40;;
66402;SDS011;53212;52.112;5.144;2023-05-10T03:12:24;53.50;;;37.70;;
66402;SDS011;53212;52.112;5.144;2023-05-10T03:15:11;49.40;;;34.10;;
66402;SDS011;53212;52.112;5.144;2023-05-10T03:20:35;56.10;;;36.30;;
66402;SDS011;53212;52.112;5.144;2023-05-10T03:25:43;54.50;;;36.70;;
66402;SDS011;53212;52.112;5.144;2023-05-10T03:28:09;56.90;;;36.50;;
66402;SDS011;53212;52.112;5.144;2023-05-10T03:30:35;56.60;;;36.70;;
66402;SDS011;53212;52.112;5.144;2023-05-10T03:33:07;51.70;;;34.10;;
66402;SDS011;53212;52.112;5.144;2023-05-10T03:35:33;55.80;;;35.00;;
66402;SDS011;53212;52.112;5.144;2023-05-10T03:37:59;65.90;;;37.60;;
66402;SDS011;53212;52.112;5.144;2023-05-10T03:40:25;54.90;;;36.20;;
66402;SDS011;53212;52.112;5.144;2023-05-10T03:42:54;52.10;;;34.10;;
66402;SDS011;53212;52.112;5.144;2023-05-10T03:45:20;55.40;;;36.10;;
66402;SDS011;53212;52.112;5.144;2023-05-10T03:47:45;56.20;;;34.70;;
66402;SDS011;53212;52.112;5.144;2023-05-10T03:50:11;55.90;;;33.50;;
66402;SDS011;53212;52.112;5.144;2023-05-10T03:52:36;53.70;;;34.10;;
66402;SDS011;53212;52.112;5.144;2023-05-10T03:55:04;55.00;;;34.00;;
66402;SDS011;53212;52.112;5.144;2023-05-10T03:57:30;55.60;;;34.60;;
66402;SDS011;53212;52.112;5.144;2023-05-10T03:59:56;43.80;;;30.50;;
66402;SDS011;53212;52.112;5.144;2023-05-10T04:02:21;45.70;;;30.60;;
66402;SDS011;53212;52.112;5.144;2023-05-10T04:04:47;46.70;;;30.00;;
66402;SDS011;53212;52.112;5.144;2023-05-10T04:07:13;48.40;;;31.50;;
66402;SDS011;53212;52.112;5.144;2023-05-10T04:09:38;47.10;;;32.50;;
66402;SDS011;53212;52.112;5.144;2023-05-10T04:12:04;47.00;;;29.30;;
66402;SDS011;53212;52.112;5.144;2023-05-10T04:14:30;45.00;;;30.60;;
66402;SDS011;53212;52.112;5.144;2023-05-10T04:16:56;51.40;;;31.80;;
66402;SDS011;53212;52.112;5.144;2023-05-10T04:19:21;44.70;;;29.20;;
66402;SDS011;53212;52.112;5.144;2023-05-10T04:21:47;42.90;;;28.20;;
66402;SDS011;53212;52.112;5.144;2023-05-10T04:24:12;38.60;;;26.90;;
66402;SDS011;53212;52.112;5.144;2023-05-10T04:26:37;45.30;;;29.80;;
66402;SDS011;53212;52.112;5.144;2023-05-10T04:29:03;41.70;;;27.40;;
66402;SDS011;53212;52.112;5.144;2023-05-10T04:31:28;38.80;;;27.30;;
66402;SDS011;53212;52.112;5.144;2023-05-10T04:33:54;37.50;;;26.60;;
66402;SDS011;53212;52.112;5.144;2023-05-10T04:36:19;41.20;;;27.80;;
66402;SDS011;53212;52.112;5.144;2023-05-10T04:38:45;37.40;;;28.40;;
66402;SDS011;53212;52.112;5.144;2023-05-10T04:41:10;43.40;;;28.30;;
66402;SDS011;53212;52.112;5.144;2023-05-10T04:43:37;40.50;;;28.70;;
66402;SDS011;53212;52.112;5.144;2023-05-10T04:46:03;40.20;;;29.70;;
66402;SDS011;53212;52.112;5.144;2023-05-10T04:48:29;43.10;;;30.20;;
66402;SDS011;53212;52.112;5.144;2023-05-10T04:50:54;33.80;;;26.20;;
66402;SDS011;53212;52.112;5.144;2023-05-10T04:53:20;35.40;;;26.00;;
66402;SDS011;53212;52.112;5.144;2023-05-10T04:55:46;35.70;;;25.90;;
66402;SDS011;53212;52.112;5.144;2023-05-10T04:58:12;33.40;;;27.00;;
66402;SDS011;53212;52.112;5.144;2023-05-10T05:00:37;38.40;;;28.90;;
66402;SDS011;53212;52.112;5.144;2023-05-10T05:03:03;39.00;;;29.30;;
66402;SDS011;53212;52.112;5.144;2023-05-10T05:05:29;36.80;;;27.30;;
66402;SDS011;53212;52.112;5.144;2023-05-10T05:07:54;42.30;;;30.40;;
66402;SDS011;53212;52.112;5.144;2023-05-10T05:10:20;47.50;;;31.50;;
66402;SDS011;53212;52.112;5.144;2023-05-10T05:12:45;47.80;;;30.00;;
66402;SDS011;53212;52.112;5.144;2023-05-10T05:15:11;44.10;;;30.40;;
66402;SDS011;53212;52.112;5.144;2023-05-10T05:17:36;41.90;;;31.10;;
66402;SDS011;53212;52.112;5.144;2023-05-10T05:20:02;36.40;;;26.10;;
66402;SDS011;53212;52.112;5.144;2023-05-10T05:22:28;35.70;;;26.20;;
66402;SDS011;53212;52.112;5.144;2023-05-10T05:24:54;29.20;;;22.20;;
66402;SDS011;53212;52.112;5.144;2023-05-10T05:27:20;33.50;;;23.30;;
66402;SDS011;53212;52.112;5.144;2023-05-10T05:29:52;34.60;;;25.90;;
66402;SDS011;53212;52.112;5.144;2023-05-10T05:32:22;36.90;;;27.40;;
66402;SDS011;53212;52.112;5.144;2023-05-10T05:34:49;36.50;;;28.80;;
66402;SDS011;53212;52.112;5.144;2023-05-10T05:37:15;33.20;;;26.40;;
66402;SDS011;53212;52.112;5.144;2023-05-10T05:39:41;41.40;;;30.40;;
66402;SDS011;53212;52.112;5.144;2023-05-10T05:42:08;43.50;;;29.90;;
66402;SDS011;53212;52.112;5.144;2023-05-10T05:44:34;41.30;;;30.80;;
66402;SDS011;53212;52.112;5.144;2023-05-10T05:47:00;36.30;;;27.30;;
66402;SDS011;53212;52.112;5.144;2023-05-10T05:49:25;38.10;;;27.60;;
66402;SDS011;53212;52.112;5.144;2023-05-10T05:51:51;35.10;;;26.60;;
66402;SDS011;53212;52.112;5.144;2023-05-10T05:54:16;33.80;;;23.30;;
66402;SDS011;53212;52.112;5.144;2023-05-10T05:56:42;28.00;;;21.60;;
66402;SDS011;53212;52.112;5.144;2023-05-10T05:59:09;27.90;;;20.30;;
66402;SDS011;53212;52.112;5.144;2023-05-10T06:01:34;23.40;;;18.10;;
66402;SDS011;53212;52.112;5.144;2023-05-10T06:04:00;25.10;;;18.70;;
66402;SDS011;53212;52.112;5.144;2023-05-10T06:06:26;23.00;;;17.90;;
66402;SDS011;53212;52.112;5.144;2023-05-10T06:08:52;17.70;;;14.50;;
66402;SDS011;53212;52.112;5.144;2023-05-10T06:11:17;18.40;;;14.10;;
66402;SDS011;53212;52.112;5.144;2023-05-10T06:13:43;18.00;;;13.90;;
66402;SDS011;53212;52.112;5.144;2023-05-10T06:16:08;13.10;;;11.70;;
66402;SDS011;53212;52.112;5.144;2023-05-10T06:18:34;14.40;;;12.00;;
66402;SDS011;53212;52.112;5.144;2023-05-10T06:20:59;15.50;;;13.40;;
66402;SDS011;53212;52.112;5.144;2023-05-10T06:23:25;15.60;;;13.10;;
66402;SDS011;53212;52.112;5.144;2023-05-10T06:25:51;16.10;;;12.30;;
66402;SDS011;53212;52.112;5.144;2023-05-10T06:28:17;14.40;;;12.40;;
66402;SDS011;53212;52.112;5.144;2023-05-10T06:30:43;13.30;;;11.20;;
66402;SDS011;53212;52.112;5.144;2023-05-10T06:33:08;11.90;;;9.80;;
66402;SDS011;53212;52.112;5.144;2023-05-10T06:35:34;13.70;;;11.00;;
66402;SDS011;53212;52.112;5.144;2023-05-10T06:37:59;14.10;;;11.00;;
66402;SDS011;53212;52.112;5.144;2023-05-10T06:40:25;12.10;;;10.50;;
66402;SDS011;53212;52.112;5.144;2023-05-10T06:42:50;13.70;;;11.50;;
66402;SDS011;53212;52.112;5.144;2023-05-10T06:45:16;13.60;;;11.70;;
66402;SDS011;53212;52.112;5.144;2023-05-10T06:47:42;14.00;;;11.00;;
66402;SDS011;53212;52.112;5.144;2023-05-10T06:50:08;11.50;;;10.40;;
66402;SDS011;53212;52.112;5.144;2023-05-10T06:52:35;12.40;;;9.90;;
66402;SDS011;53212;52.112;5.144;2023-05-10T06:55:01;10.30;;;9.30;;
66402;SDS011;53212;52.112;5.144;2023-05-10T06:57:27;10.90;;;9.80;;
66402;SDS011;53212;52.112;5.144;2023-05-10T06:59:53;10.70;;;9.70;;
66402;SDS011;53212;52.112;5.144;2023-05-10T07:02:21;10.90;;;8.90;;
66402;SDS011;53212;52.112;5.144;2023-05-10T07:04:47;10.70;;;9.30;;
66402;SDS011;53212;52.112;5.144;2023-05-10T07:07:14;11.50;;;9.70;;
66402;SDS011;53212;52.112;5.144;2023-05-10T07:09:39;11.20;;;9.10;;
66402;SDS011;53212;52.112;5.144;2023-05-10T07:12:05;12.10;;;8.80;;
66402;SDS011;53212;52.112;5.144;2023-05-10T07:14:31;9.50;;;8.60;;
66402;SDS011;53212;52.112;5.144;2023-05-10T07:16:56;9.60;;;8.60;;
66402;SDS011;53212;52.112;5.144;2023-05-10T07:19:21;9.80;;;8.80;;
66402;SDS011;53212;52.112;5.144;2023-05-10T07:21:47;10.10;;;8.00;;
66402;SDS011;53212;52.112;5.144;2023-05-10T07:24:13;8.60;;;7.70;;
66402;SDS011;53212;52.112;5.144;2023-05-10T07:26:38;8.20;;;7.20;;
66402;SDS011;53212;52.112;5.144;2023-05-10T07:29:03;11.10;;;8.80;;
66402;SDS011;53212;52.112;5.144;2023-05-10T07:31:29;10.00;;;8.50;;
66402;SDS011;53212;52.112;5.144;2023-05-10T07:33:54;9.60;;;8.50;;
66402;SDS011;53212;52.112;5.144;2023-05-10T07:36:20;9.50;;;8.30;;
66402;SDS011;53212;52.112;5.144;2023-05-10T07:38:45;8.60;;;7.60;;
66402;SDS011;53212;52.112;5.144;2023-05-10T07:41:11;9.00;;;8.00;;
66402;SDS011;53212;52.112;5.144;2023-05-10T07:43:37;10.30;;;9.20;;
66402;SDS011;53212;52.112;5.144;2023-05-10T07:46:02;9.40;;;8.20;;
66402;SDS011;53212;52.112;5.144;2023-05-10T07:48:28;9.50;;;8.50;;
66402;SDS011;53212;52.112;5.144;2023-05-10T07:50:53;11.00;;;8.20;;
66402;SDS011;53212;52.112;5.144;2023-05-10T07:53:19;11.40;;;8.40;;
66402;SDS011;53212;52.112;5.144;2023-05-10T07:55:50;9.90;;;8.40;;
66402;SDS011;53212;52.112;5.144;2023-05-10T07:58:16;9.40;;;8.50;;
66402;SDS011;53212;52.112;5.144;2023-05-10T08:00:41;10.10;;;8.40;;
66402;SDS011;53212;52.112;5.144;2023-05-10T08:03:06;8.50;;;7.70;;
66402;SDS011;53212;52.112;5.144;2023-05-10T08:05:32;10.10;;;8.20;;
66402;SDS011;53212;52.112;5.144;2023-05-10T08:07:57;9.30;;;8.40;;
66402;SDS011;53212;52.112;5.144;2023-05-10T08:10:24;8.90;;;7.60;;
66402;SDS011;53212;52.112;5.144;2023-05-10T08:12:50;10.10;;;7.70;;
66402;SDS011;53212;52.112;5.144;2023-05-10T08:15:16;9.30;;;8.30;;
66402;SDS011;53212;52.112;5.144;2023-05-10T08:17:41;9.00;;;8.10;;
66402;SDS011;53212;52.112;5.144;2023-05-10T08:20:08;10.70;;;8.40;;
66402;SDS011;53212;52.112;5.144;2023-05-10T08:22:34;8.60;;;7.80;;
66402;SDS011;53212;52.112;5.144;2023-05-10T08:24:59;9.20;;;7.70;;
66402;SDS011;53212;52.112;5.144;2023-05-10T08:27:25;10.40;;;8.00;;
66402;SDS011;53212;52.112;5.144;2023-05-10T08:29:51;9.90;;;8.30;;
66402;SDS011;53212;52.112;5.144;2023-05-10T08:32:17;10.00;;;9.00;;
66402;SDS011;53212;52.112;5.144;2023-05-10T08:34:42;9.70;;;8.40;;
66402;SDS011;53212;52.112;5.144;2023-05-10T08:37:08;12.60;;;8.00;;
66402;SDS011;53212;52.112;5.144;2023-05-10T08:39:35;10.00;;;8.20;;
66402;SDS011;53212;52.112;5.144;2023-05-10T08:42:02;10.00;;;8.10;;
66402;SDS011;53212;52.112;5.144;2023-05-10T08:44:32;8.70;;;7.40;;
66402;SDS011;53212;52.112;5.144;2023-05-10T08:47:04;9.90;;;8.20;;
66402;SDS011;53212;52.112;5.144;2023-05-10T08:49:32;8.40;;;7.60;;
66402;SDS011;53212;52.112;5.144;2023-05-10T08:51:58;9.80;;;7.60;;
66402;SDS011;53212;52.112;5.144;2023-05-10T08:54:26;9.00;;;8.10;;
66402;SDS011;53212;52.112;5.144;2023-05-10T08:56:52;10.00;;;8.00;;
66402;SDS011;53212;52.112;5.144;2023-05-10T08:59:18;8.60;;;7.60;;
66402;SDS011;53212;52.112;5.144;2023-05-10T09:01:44;7.80;;;7.00;;
66402;SDS011;53212;52.112;5.144;2023-05-10T09:04:10;6.70;;;6.00;;
66402;SDS011;53212;52.112;5.144;2023-05-10T09:06:37;7.70;;;6.80;;
66402;SDS011;53212;52.112;5.144;2023-05-10T09:09:02;7.80;;;5.90;;
66402;SDS011;53212;52.112;5.144;2023-05-10T09:11:28;5.70;;;5.10;;
66402;SDS011;53212;52.112;5.144;2023-05-10T09:13:55;6.20;;;5.60;;
66402;SDS011;53212;52.112;5.144;2023-05-10T09:16:21;7.30;;;5.90;;
66402;SDS011;53212;52.112;5.144;2023-05-10T09:18:47;6.00;;;5.40;;
66402;SDS011;53212;52.112;5.144;2023-05-10T09:21:14;5.70;;;5.10;;
66402;SDS011;53212;52.112;5.144;2023-05-10T09:23:43;5.80;;;5.10;;
66402;SDS011;53212;52.112;5.144;2023-05-10T09:26:10;6.60;;;4.70;;
66402;SDS011;53212;52.112;5.144;2023-05-10T09:28:56;6.80;;;4.60;;
66402;SDS011;53212;52.112;5.144;2023-05-10T09:31:23;6.10;;;4.80;;
66402;SDS011;53212;52.112;5.144;2023-05-10T09:33:51;5.20;;;4.40;;
66402;SDS011;53212;52.112;5.144;2023-05-10T09:36:17;6.50;;;4.70;;
66402;SDS011;53212;52.112;5.144;2023-05-10T09:38:47;6.00;;;4.60;;
66402;SDS011;53212;52.112;5.144;2023-05-10T09:41:21;5.00;;;4.50;;
66402;SDS011;53212;52.112;5.144;2023-05-10T09:43:49;4.90;;;4.30;;
66402;SDS011;53212;52.112;5.144;2023-05-10T09:46:15;5.30;;;4.80;;
66402;SDS011;53212;52.112;5.144;2023-05-10T09:48:46;5.40;;;4.50;;
66402;SDS011;53212;52.112;5.144;2023-05-10T09:51:22;5.50;;;4.60;;
66402;SDS011;53212;52.112;5.144;2023-05-10T09:54:17;4.30;;;4.00;;
66402;SDS011;53212;52.112;5.144;2023-05-10T09:56:42;4.40;;;4.00;;
66402;SDS011;53212;52.112;5.144;2023-05-10T09:59:11;5.00;;;4.10;;
66402;SDS011;53212;52.112;5.144;2023-05-10T10:01:38;3.80;;;3.50;;
66402;SDS011;53212;52.112;5.144;2023-05-10T10:04:05;4.10;;;3.10;;
66402;SDS011;53212;52.112;5.144;2023-05-10T10:06:39;3.70;;;3.10;;
66402;SDS011;53212;52.112;5.144;2023-05-10T10:09:05;3.90;;;3.30;;
66402;SDS011;53212;52.112;5.144;2023-05-10T10:11:34;3.50;;;3.20;;
66402;SDS011;53212;52.112;5.144;2023-05-10T10:14:02;3.60;;;3.30;;
66402;SDS011;53212;52.112;5.144;2023-05-10T10:16:31;4.30;;;3.30;;
66402;SDS011;53212;52.112;5.144;2023-05-10T10:18:57;4.00;;;3.50;;
66402;SDS011;53212;52.112;5.144;2023-05-10T10:21:24;5.10;;;3.70;;
66402;SDS011;53212;52.112;5.144;2023-05-10T10:23:50;6.20;;;3.30;;
66402;SDS011;53212;52.112;5.144;2023-05-10T10:26:17;5.60;;;3.70;;
66402;SDS011;53212;52.112;5.144;2023-05-10T10:34:26;5.10;;;4.20;;
66402;SDS011;53212;52.112;5.144;2023-05-10T10:36:54;5.80;;;4.20;;
66402;SDS011;53212;52.112;5.144;2023-05-10T10:39:20;5.30;;;4.40;;
66402;SDS011;53212;52.112;5.144;2023-05-10T10:41:51;4.80;;;4.30;;
66402;SDS011;53212;52.112;5.144;2023-05-10T10:49:24;5.50;;;5.00;;
66402;SDS011;53212;52.112;5.144;2023-05-10T10:52:18;5.70;;;5.10;;
66402;SDS011;53212;52.112;5.144;2023-05-10T10:55:08;6.00;;;4.60;;
66402;SDS011;53212;52.112;5.144;2023-05-10T10:57:49;4.40;;;3.80;;
66402;SDS011;53212;52.112;5.144;2023-05-10T11:05:44;3.70;;;3.40;;
66402;SDS011;53212;52.112;5.144;2023-05-10T11:13:38;4.30;;;2.90;;
66402;SDS011;53212;52.112;5.144;2023-05-10T11:21:32;3.50;;;2.90;;
66402;SDS011;53212;52.112;5.144;2023-05-10T11:24:00;3.50;;;3.00;;
66402;SDS011;53212;52.112;5.144;2023-05-10T11:26:32;2.50;;;2.30;;
66402;SDS011;53212;52.112;5.144;2023-05-10T11:28:59;4.00;;;2.90;;
66402;SDS011;53212;52.112;5.144;2023-05-10T11:31:27;3.00;;;2.70;;
66402;SDS011;53212;52.112;5.144;2023-05-10T11:33:58;3.20;;;2.80;;
66402;SDS011;53212;52.112;5.144;2023-05-10T11:36:26;3.10;;;2.70;;
66402;SDS011;53212;52.112;5.144;2023-05-10T11:38:54;2.80;;;2.50;;
66402;SDS011;53212;52.112;5.144;2023-05-10T11:41:22;4.20;;;3.00;;
66402;SDS011;53212;52.112;5.144;2023-05-10T11:43:52;3.70;;;2.90;;
66402;SDS011;53212;52.112;5.144;2023-05-10T11:46:21;3.90;;;3.00;;
66402;SDS011;53212;52.112;5.144;2023-05-10T11:48:51;6.10;;;3.00;;
66402;SDS011;53212;52.112;5.144;2023-05-10T11:51:21;4.60;;;3.60;;
66402;SDS011;53212;52.112;5.144;2023-05-10T11:53:55;4.50;;;3.10;;
66402;SDS011;53212;52.112;5.144;2023-05-10T11:56:21;3.60;;;3.30;;
66402;SDS011;53212;52.112;5.144;2023-05-10T11:58:56;4.80;;;2.80;;
66402;SDS011;53212;52.112;5.144;2023-05-10T12:01:23;5.00;;;3.30;;
66402;SDS011;53212;52.112;5.144;2023-05-10T12:03:50;3.60;;;3.10;;
66402;SDS011;53212;52.112;5.144;2023-05-10T12:06:18;4.30;;;3.20;;
66402;SDS011;53212;52.112;5.144;2023-05-10T12:08:48;3.70;;;3.00;;
66402;SDS011;53212;52.112;5.144;2023-05-10T12:11:17;3.70;;;3.20;;
66402;SDS011;53212;52.112;5.144;2023-05-10T12:13:44;4.00;;;3.20;;
66402;SDS011;53212;52.112;5.144;2023-05-10T12:16:17;4.20;;;3.30;;
66402;SDS011;53212;52.112;5.144;2023-05-10T12:18:51;3.30;;;2.90;;
66402;SDS011;53212;52.112;5.144;2023-05-10T12:21:18;2.50;;;2.30;;
66402;SDS011;53212;52.112;5.144;2023-05-10T12:23:46;2.80;;;2.60;;
66402;SDS011;53212;52.112;5.144;2023-05-10T12:26:13;5.50;;;5.00;;
66402;SDS011;53212;52.112;5.144;2023-05-10T12:28:39;7.60;;;5.60;;
66402;SDS011;53212;52.112;5.144;2023-05-10T12:31:05;9.70;;;6.00;;
66402;SDS011;53212;52.112;5.144;2023-05-10T12:33:44;11.50;;;5.30;;
66402;SDS011;53212;52.112;5.144;2023-05-10T12:36:12;9.30;;;7.10;;
66402;SDS011;53212;52.112;5.144;2023-05-10T12:38:40;12.70;;;9.10;;
66402;SDS011;53212;52.112;5.144;2023-05-10T12:41:10;13.20;;;9.60;;
66402;SDS011;53212;52.112;5.144;2023-05-10T12:43:38;12.30;;;9.80;;
66402;SDS011;53212;52.112;5.144;2023-05-10T12:46:05;11.80;;;9.10;;
66402;SDS011;53212;52.112;5.144;2023-05-10T12:48:32;12.70;;;9.20;;
66402;SDS011;53212;52.112;5.144;2023-05-10T12:50:59;14.60;;;10.30;;
66402;SDS011;53212;52.112;5.144;2023-05-10T12:53:25;11.90;;;9.40;;
66402;SDS011;53212;52.112;5.144;2023-05-10T12:55:51;12.70;;;9.50;;
66402;SDS011;53212;52.112;5.144;2023-05-10T12:58:16;14.90;;;11.20;;
66402;SDS011;53212;52.112;5.144;2023-05-10T13:00:42;13.20;;;10.20;;
66402;SDS011;53212;52.112;5.144;2023-05-10T13:03:08;11.80;;;9.60;;
66402;SDS011;53212;52.112;5.144;2023-05-10T13:05:34;14.00;;;11.10;;
66402;SDS011;53212;52.112;5.144;2023-05-10T13:08:01;15.30;;;11.30;;
66402;SDS011;53212;52.112;5.144;2023-05-10T13:10:29;14.20;;;10.90;;
66402;SDS011;53212;52.112;5.144;2023-05-10T13:12:56;16.70;;;11.40;;
66402;SDS011;53212;52.112;5.144;2023-05-10T13:15:22;14.00;;;10.70;;
66402;SDS011;53212;52.112;5.144;2023-05-10T13:17:47;13.40;;;9.50;;
66402;SDS011;53212;52.112;5.144;2023-05-10T13:20:13;14.80;;;10.50;;
66402;SDS011;53212;52.112;5.144;2023-05-10T13:22:40;12.10;;;9.40;;
66402;SDS011;53212;52.112;5.144;2023-05-10T13:25:06;13.80;;;10.30;;
66402;SDS011;53212;52.112;5.144;2023-05-10T13:27:33;14.50;;;9.80;;
66402;SDS011;53212;52.112;5.144;2023-05-10T13:29:58;18.10;;;10.10;;
66402;SDS011;53212;52.112;5.144;2023-05-10T13:32:25;14.20;;;9.20;;
66402;SDS011;53212;52.112;5.144;2023-05-10T13:34:51;11.40;;;8.60;;
66402;SDS011;53212;52.112;5.144;2023-05-10T13:37:17;13.70;;;9.30;;
66402;SDS011;53212;52.112;5.144;2023-05-10T13:39:42;13.00;;;8.80;;
66402;SDS011;53212;52.112;5.144;2023-05-10T13:42:08;12.30;;;8.80;;
66402;SDS011;53212;52.112;5.144;2023-05-10T13:44:33;12.60;;;9.00;;
66402;SDS011;53212;52.112;5.144;2023-05-10T13:46:59;10.00;;;8.90;;
66402;SDS011;53212;52.112;5.144;2023-05-10T13:49:24;10.90;;;8.60;;
66402;SDS011;53212;52.112;5.144;2023-05-10T13:51:50;9.80;;;8.10;;
66402;SDS011;53212;52.112;5.144;2023-05-10T13:54:16;10.80;;;8.00;;
66402;SDS011;53212;52.112;5.144;2023-05-10T13:56:44;10.40;;;8.00;;
66402;SDS011;53212;52.112;5.144;2023-05-10T13:59:10;9.50;;;7.30;;
66402;SDS011;53212;52.112;5.144;2023-05-10T14:01:35;8.80;;;7.20;;
66402;SDS011;53212;52.112;5.144;2023-05-10T14:04:01;9.80;;;7.90;;
66402;SDS011;53212;52.112;5.144;2023-05-10T14:06:27;7.20;;;6.30;;
66402;SDS011;53212;52.112;5.144;2023-05-10T14:08:52;9.40;;;7.40;;
66402;SDS011;53212;52.112;5.144;2023-05-10T14:11:19;8.10;;;7.30;;
66402;SDS011;53212;52.112;5.144;2023-05-10T14:13:44;9.70;;;6.80;;
66402;SDS011;53212;52.112;5.144;2023-05-10T14:16:10;7.40;;;6.60;;
66402;SDS011;53212;52.112;5.144;2023-05-10T14:18:36;9.00;;;6.80;;
66402;SDS011;53212;52.112;5.144;2023-05-10T14:21:02;7.50;;;6.70;;
66402;SDS011;53212;52.112;5.144;2023-05-10T14:23:28;8.20;;;6.80;;
66402;SDS011;53212;52.112;5.144;2023-05-10T14:25:55;6.70;;;6.10;;
66402;SDS011;53212;52.112;5.144;2023-05-10T14:28:20;6.90;;;6.20;;
66402;SDS011;53212;52.112;5.144;2023-05-10T14:30:47;8.30;;;6.60;;
66402;SDS011;53212;52.112;5.144;2023-05-10T14:33:13;7.20;;;6.40;;
66402;SDS011;53212;52.112;5.144;2023-05-10T14:35:38;6.80;;;6.20;;
66402;SDS011;53212;52.112;5.144;2023-05-10T14:38:04;6.40;;;5.70;;
66402;SDS011;53212;52.112;5.144;2023-05-10T14:40:30;6.60;;;6.00;;
66402;SDS011;53212;52.112;5.144;2023-05-10T14:42:56;5.80;;;5.10;;
66402;SDS011;53212;52.112;5.144;2023-05-10T14:45:22;6.90;;;6.00;;
66402;SDS011;53212;52.112;5.144;2023-05-10T14:47:48;8.00;;;6.30;;
66402;SDS011;53212;52.112;5.144;2023-05-10T14:50:14;7.50;;;6.50;;
66402;SDS011;53212;52.112;5.144;2023-05-10T14:52:40;6.80;;;6.10;;
66402;SDS011;53212;52.112;5.144;2023-05-10T14:55:06;7.10;;;6.40;;
66402;SDS011;53212;52.112;5.144;2023-05-10T14:57:32;7.10;;;6.30;;
66402;SDS011;53212;52.112;5.144;2023-05-10T14:59:58;7.00;;;6.20;;
66402;SDS011;53212;52.112;5.144;2023-05-10T15:02:23;7.30;;;6.20;;
66402;SDS011;53212;52.112;5.144;2023-05-10T15:04:49;6.60;;;5.60;;
66402;SDS011;53212;52.112;5.144;2023-05-10T15:07:14;6.20;;;5.50;;
66402;SDS011;53212;52.112;5.144;2023-05-10T15:09:41;6.40;;;5.40;;
66402;SDS011;53212;52.112;5.144;2023-05-10T15:12:07;6.60;;;5.50;;
66402;SDS011;53212;52.112;5.144;2023-05-10T15:14:32;5.40;;;4.90;;
66402;SDS011;53212;52.112;5.144;2023-05-10T15:16:58;6.00;;;4.70;;